createdAt,value
2018-10-11T00:02:03.321Z,62.24
2018-10-11T00:04:31.746Z,62.50
2018-10-11T00:07:00.268Z,63.08
2018-10-11T00:09:28.693Z,62.66
2018-10-11T00:11:57.594Z,62.27
2018-10-11T00:14:26.021Z,62.48
2018-10-11T00:16:54.424Z,62.81
2018-10-11T00:19:22.897Z,62.95
2018-10-11T00:21:51.494Z,62.59
2018-10-11T00:24:19.949Z,62.72
2018-10-11T00:26:48.399Z,63.35
2018-10-11T00:29:16.791Z,63.27
2018-10-11T00:31:45.286Z,63.75
2018-10-11T00:34:13.708Z,63.59
2018-10-11T00:36:42.209Z,63.24
2018-10-11T00:39:10.644Z,63.54
2018-10-11T00:44:16.086Z,63.30
2018-10-11T00:46:46.150Z,63.30
2018-10-11T00:49:14.605Z,63.03
2018-10-11T00:51:43.004Z,63.55
2018-10-11T00:54:11.427Z,63.70
2018-10-11T00:56:40.244Z,63.21
2018-10-11T00:59:09.401Z,64.02
2018-10-11T01:01:37.859Z,63.69
2018-10-11T01:04:06.242Z,63.66
2018-10-11T01:06:34.681Z,63.96
2018-10-11T01:09:03.277Z,64.09
2018-10-11T01:11:31.767Z,64.04
2018-10-11T01:14:00.213Z,64.27
2018-10-11T01:16:28.565Z,64.28
2018-10-11T01:18:57.209Z,64.06
2018-10-11T01:21:25.771Z,64.30
2018-10-11T01:23:54.372Z,63.71
2018-10-11T01:26:22.838Z,64.36
2018-10-11T01:28:51.313Z,64.04
2018-10-11T01:31:21.685Z,64.43
2018-10-11T01:33:50.440Z,64.47
2018-10-11T01:36:19.238Z,64.10
2018-10-11T01:38:50.110Z,63.74
2018-10-11T01:41:18.553Z,64.27
2018-10-11T01:43:47.014Z,63.96
2018-10-11T01:46:15.428Z,64.89
2018-10-11T01:48:43.859Z,64.43
2018-10-11T01:51:12.271Z,65.13
2018-10-11T01:53:40.711Z,64.60
2018-10-11T01:56:09.470Z,64.46
2018-10-11T01:58:44.578Z,65.00
2018-10-11T02:01:12.963Z,64.82
2018-10-11T02:03:41.539Z,64.71
2018-10-11T02:06:11.357Z,64.63
2018-10-11T02:08:39.833Z,65.02
2018-10-11T02:11:08.307Z,64.86
2018-10-11T02:13:36.779Z,65.15
2018-10-11T02:16:05.229Z,64.94
2018-10-11T02:18:33.643Z,65.19
2018-10-11T02:21:02.011Z,64.86
2018-10-11T02:23:30.569Z,65.59
2018-10-11T02:25:59.111Z,65.14
2018-10-11T02:28:27.645Z,65.28
2018-10-11T02:30:57.394Z,64.72
2018-10-11T02:33:25.839Z,65.71
2018-10-11T02:35:54.223Z,64.81
2018-10-11T02:38:22.613Z,65.41
2018-10-11T02:40:51.103Z,65.95
2018-10-11T02:43:19.510Z,65.58
2018-10-11T02:45:47.959Z,65.63
2018-10-11T02:48:16.330Z,65.42
2018-10-11T02:50:44.851Z,65.56
2018-10-11T02:53:13.381Z,65.47
2018-10-11T02:55:42.212Z,65.83
2018-10-11T02:58:21.959Z,66.33
2018-10-11T03:00:50.418Z,65.95
2018-10-11T03:03:33.716Z,65.66
2018-10-11T03:06:02.439Z,65.77
2018-10-11T03:08:30.905Z,66.41
2018-10-11T03:10:59.586Z,65.57
2018-10-11T03:13:27.996Z,66.53
2018-10-11T03:15:56.489Z,66.26
2018-10-11T03:18:24.921Z,66.04
2018-10-11T03:20:53.840Z,66.31
2018-10-11T03:23:22.316Z,66.71
2018-10-11T03:25:50.730Z,66.43
2018-10-11T03:28:19.218Z,66.12
2018-10-11T03:30:48.376Z,66.10
2018-10-11T03:33:17.355Z,66.00
2018-10-11T03:35:45.944Z,66.45
2018-10-11T03:38:14.628Z,66.76
2018-10-11T03:40:43.540Z,66.76
2018-10-11T03:43:12.079Z,66.40
2018-10-11T03:45:40.444Z,66.51
2018-10-11T03:48:09.061Z,66.42
2018-10-11T03:50:37.693Z,66.35
2018-10-11T03:53:06.233Z,66.52
2018-10-11T03:55:34.596Z,66.99
2018-10-11T03:58:03.033Z,66.82
2018-10-11T04:00:31.502Z,67.39
2018-10-11T04:03:00.046Z,66.94
2018-10-11T04:05:28.421Z,66.68
2018-10-11T04:07:58.035Z,66.95
2018-10-11T04:10:26.459Z,67.15
2018-10-11T04:12:54.860Z,66.74
2018-10-11T04:15:23.387Z,67.12
2018-10-11T04:17:51.773Z,67.08
2018-10-11T04:20:20.157Z,67.00
2018-10-11T04:22:48.605Z,66.83
2018-10-11T04:25:17.049Z,66.91
2018-10-11T04:27:45.563Z,66.79
2018-10-11T04:30:14.117Z,66.91
2018-10-11T04:32:42.563Z,67.54
2018-10-11T04:35:11.085Z,67.53
2018-10-11T04:37:39.617Z,67.65
2018-10-11T04:40:08.072Z,67.17
2018-10-11T04:42:36.729Z,67.44
2018-10-11T04:45:05.353Z,66.72
2018-10-11T04:47:33.715Z,67.03
2018-10-11T04:50:02.243Z,67.67
2018-10-11T04:52:30.705Z,67.06
2018-10-11T04:54:59.167Z,66.86
2018-10-11T04:57:27.586Z,67.09
2018-10-11T04:59:56.085Z,66.90
2018-10-11T05:02:24.600Z,67.35
2018-10-11T05:04:53.224Z,67.31
2018-10-11T05:07:21.631Z,66.93
2018-10-11T05:09:50.040Z,67.76
2018-10-11T05:12:18.557Z,67.14
2018-10-11T05:14:47.012Z,67.91
2018-10-11T05:17:15.517Z,67.64
2018-10-11T05:19:43.975Z,68.07
2018-10-11T05:22:12.344Z,68.03
2018-10-11T05:24:40.860Z,67.63
2018-10-11T05:27:09.283Z,68.29
2018-10-11T05:29:37.639Z,68.18
2018-10-11T05:32:06.072Z,68.19
2018-10-11T05:34:34.448Z,68.79
2018-10-11T05:37:02.914Z,69.00
2018-10-11T05:39:31.463Z,68.82
2018-10-11T05:42:00.042Z,69.21
2018-10-11T05:44:28.511Z,68.88
2018-10-11T05:46:57.021Z,68.92
2018-10-11T05:49:25.444Z,69.21
2018-10-11T05:51:53.864Z,68.90
2018-10-11T05:54:22.457Z,68.96
2018-10-11T05:56:50.873Z,68.57
2018-10-11T05:59:19.318Z,68.94
2018-10-11T06:01:47.698Z,69.04
2018-10-11T06:04:16.103Z,68.71
2018-10-11T06:06:47.455Z,68.96
2018-10-11T06:09:15.866Z,68.96
2018-10-11T06:11:44.708Z,68.87
2018-10-11T06:14:13.689Z,69.36
2018-10-11T06:16:42.289Z,68.81
2018-10-11T06:19:11.903Z,69.19
2018-10-11T06:21:40.285Z,69.02
2018-10-11T06:24:08.847Z,68.76
2018-10-11T06:26:37.340Z,69.23
2018-10-11T06:29:05.852Z,69.05
2018-10-11T06:31:34.247Z,69.35
2018-10-11T06:34:02.668Z,68.88
2018-10-11T06:36:31.245Z,68.67
2018-10-11T06:39:00.210Z,68.56
2018-10-11T06:41:28.977Z,68.47
2018-10-11T06:43:57.594Z,68.18
2018-10-11T06:46:26.135Z,68.19
2018-10-11T06:48:54.663Z,67.70
2018-10-11T06:51:32.544Z,67.37
2018-10-11T06:54:00.909Z,66.72
2018-10-11T06:56:29.439Z,66.90
2018-10-11T06:58:57.909Z,67.17
2018-10-11T07:01:26.281Z,66.95
2018-10-11T07:03:54.643Z,66.21
2018-10-11T07:06:23.109Z,66.24
2018-10-11T07:08:51.606Z,65.70
2018-10-11T07:11:20.041Z,65.59
2018-10-11T07:13:48.467Z,65.14
2018-10-11T07:16:16.836Z,65.37
2018-10-11T07:18:45.219Z,65.43
2018-10-11T07:21:13.657Z,64.80
2018-10-11T07:23:42.451Z,64.28
2018-10-11T07:26:10.965Z,64.51
2018-10-11T07:28:39.364Z,64.32
2018-10-11T07:31:07.928Z,64.12
2018-10-11T07:33:36.337Z,63.11
2018-10-11T07:36:05.040Z,63.34
2018-10-11T07:38:33.900Z,63.07
2018-10-11T07:41:02.382Z,63.15
2018-10-11T07:43:30.719Z,62.75
2018-10-11T07:45:59.165Z,62.15
2018-10-11T07:48:27.614Z,62.22
2018-10-11T07:50:55.927Z,62.14
2018-10-11T07:53:24.914Z,61.74
2018-10-11T07:55:53.292Z,62.01
2018-10-11T07:58:21.805Z,61.76
2018-10-11T08:00:50.379Z,61.68
2018-10-11T08:03:18.985Z,61.91
2018-10-11T08:05:47.305Z,61.34
2018-10-11T08:08:15.745Z,61.67
2018-10-11T08:10:44.246Z,61.44
2018-10-11T08:13:12.707Z,61.50
2018-10-11T08:15:41.103Z,61.01
2018-10-11T08:18:09.521Z,60.93
2018-10-11T08:20:38.012Z,61.04
2018-10-11T08:23:06.400Z,60.56
2018-10-11T08:25:35.118Z,60.83
2018-10-11T08:28:03.436Z,60.87
2018-10-11T08:30:31.970Z,60.47
2018-10-11T08:33:00.476Z,60.63
2018-10-11T08:35:28.769Z,60.48
2018-10-11T08:37:57.634Z,59.80
2018-10-11T08:40:26.040Z,60.66
2018-10-11T08:42:54.466Z,60.61
2018-10-11T08:45:22.900Z,60.00
2018-10-11T08:47:51.497Z,59.57
2018-10-11T08:50:20.200Z,59.36
2018-10-11T08:52:48.455Z,59.29
2018-10-11T08:55:16.965Z,58.64
2018-10-11T08:57:45.352Z,59.06
2018-10-11T09:00:13.821Z,58.66
2018-10-11T09:02:42.261Z,58.70
2018-10-11T09:05:11.357Z,59.10
2018-10-11T09:07:39.867Z,58.78
2018-10-11T09:10:08.514Z,58.80
2018-10-11T09:12:36.990Z,59.10
2018-10-11T09:15:05.524Z,58.64
2018-10-11T09:17:33.987Z,58.55
2018-10-11T09:20:02.494Z,58.83
2018-10-11T09:22:37.669Z,58.18
2018-10-11T09:25:06.109Z,58.41
2018-10-11T09:27:34.492Z,57.85
2018-10-11T09:30:02.959Z,58.53
2018-10-11T09:32:31.541Z,58.19
2018-10-11T09:35:00.043Z,57.53
2018-10-11T09:37:28.485Z,56.63
2018-10-11T09:39:56.907Z,57.11
2018-10-11T09:42:25.280Z,56.69
2018-10-11T09:44:53.912Z,55.83
2018-10-11T09:47:22.421Z,55.71
2018-10-11T09:49:50.995Z,54.95
2018-10-11T09:52:19.596Z,54.42
2018-10-11T09:54:48.210Z,54.05
2018-10-11T09:57:20.695Z,54.52
2018-10-11T09:59:49.097Z,54.14
2018-10-11T10:02:17.655Z,53.88
2018-10-11T10:04:48.246Z,53.05
2018-10-11T10:07:16.694Z,52.96
2018-10-11T10:09:45.817Z,52.00
2018-10-11T10:12:15.164Z,52.10
2018-10-11T10:14:44.319Z,51.50
2018-10-11T10:17:12.854Z,51.79
2018-10-11T10:19:41.743Z,51.43
2018-10-11T10:22:10.328Z,51.09
2018-10-11T10:24:38.748Z,50.74
2018-10-11T10:27:07.309Z,50.20
2018-10-11T10:29:37.175Z,48.96
2018-10-11T10:32:06.307Z,48.73
2018-10-11T10:34:34.854Z,48.63
2018-10-11T10:37:03.355Z,49.51
2018-10-11T10:39:31.901Z,49.07
2018-10-11T10:42:00.440Z,49.25
2018-10-11T10:44:28.917Z,49.05
2018-10-11T10:46:57.259Z,47.94
2018-10-11T10:49:25.681Z,48.05
2018-10-11T10:51:54.252Z,47.71
2018-10-11T10:54:31.159Z,47.81
2018-10-11T10:57:00.314Z,46.99
2018-10-11T10:59:28.839Z,46.53
2018-10-11T11:01:57.412Z,46.66
2018-10-11T11:04:26.176Z,46.44
2018-10-11T11:06:54.711Z,46.37
2018-10-11T11:09:23.285Z,46.66
2018-10-11T11:11:51.837Z,47.05
2018-10-11T11:14:22.305Z,46.63
2018-10-11T11:16:50.815Z,46.46
2018-10-11T11:19:19.649Z,46.15
2018-10-11T11:21:48.100Z,45.99
2018-10-11T11:24:16.659Z,45.59
2018-10-11T11:26:45.310Z,45.49
2018-10-11T11:29:13.730Z,45.18
2018-10-11T11:31:42.268Z,44.98
2018-10-11T11:34:10.769Z,45.52
2018-10-11T11:36:39.183Z,45.05
2018-10-11T11:39:09.411Z,44.99
2018-10-11T11:41:37.950Z,45.20
2018-10-11T11:44:06.321Z,45.14
2018-10-11T11:46:34.861Z,45.17
2018-10-11T11:49:03.245Z,44.68
2018-10-11T11:51:31.697Z,44.56
2018-10-11T11:54:00.239Z,44.99
2018-10-11T11:56:28.728Z,43.78
2018-10-11T11:58:57.310Z,44.21
2018-10-11T12:01:25.912Z,44.30
2018-10-11T12:03:54.523Z,43.48
2018-10-11T12:06:23.159Z,44.07
2018-10-11T12:08:51.650Z,44.72
2018-10-11T12:11:20.104Z,44.04
2018-10-11T12:13:48.546Z,44.80
2018-10-11T12:16:17.095Z,45.08
2018-10-11T12:18:45.574Z,44.58
2018-10-11T12:21:13.979Z,44.74
2018-10-11T12:23:42.537Z,43.66
2018-10-11T12:26:11.031Z,43.87
2018-10-11T12:28:39.773Z,44.00
2018-10-11T12:31:08.358Z,43.62
2018-10-11T12:33:36.812Z,42.86
2018-10-11T12:36:05.850Z,42.02
2018-10-11T12:38:34.265Z,42.76
2018-10-11T12:41:02.868Z,42.41
2018-10-11T12:43:31.374Z,42.38
2018-10-11T12:45:59.884Z,42.34
2018-10-11T12:48:28.389Z,42.85
2018-10-11T12:50:57.149Z,42.21
2018-10-11T12:53:25.687Z,42.79
2018-10-11T12:55:54.326Z,42.91
2018-10-11T12:58:22.835Z,43.57
2018-10-11T13:00:51.484Z,43.74
2018-10-11T13:03:20.693Z,43.58
2018-10-11T13:05:49.110Z,43.77
2018-10-11T13:08:17.672Z,44.34
2018-10-11T13:10:46.133Z,44.63
2018-10-11T13:13:14.629Z,44.46
2018-10-11T13:15:43.257Z,44.93
2018-10-11T13:18:11.674Z,44.51
2018-10-11T13:20:40.051Z,44.07
2018-10-11T13:23:12.288Z,44.35
2018-10-11T13:25:37.264Z,44.20
2018-10-11T13:28:05.676Z,44.87
2018-10-11T13:30:34.108Z,44.67
2018-10-11T13:33:02.968Z,45.25
2018-10-11T13:35:31.386Z,44.75
2018-10-11T13:37:59.913Z,45.35
2018-10-11T13:40:28.418Z,44.45
2018-10-11T13:42:56.919Z,44.80
2018-10-11T13:45:25.338Z,44.91
2018-10-11T13:47:53.730Z,44.45
2018-10-11T13:50:22.292Z,44.47
2018-10-11T13:52:50.867Z,44.56
2018-10-11T13:55:19.208Z,44.35
2018-10-11T13:57:47.637Z,45.35
2018-10-11T14:00:16.175Z,45.40
2018-10-11T14:02:44.627Z,45.25
2018-10-11T14:05:13.038Z,44.85
2018-10-11T14:07:41.515Z,44.61
2018-10-11T14:10:09.914Z,44.17
2018-10-11T14:12:38.413Z,44.33
2018-10-11T14:15:07.788Z,44.73
2018-10-11T14:17:36.190Z,43.93
2018-10-11T14:20:04.577Z,44.05
2018-10-11T14:22:33.038Z,43.50
2018-10-11T14:25:01.621Z,43.66
2018-10-11T14:27:30.016Z,44.04
2018-10-11T14:29:58.596Z,44.16
2018-10-11T14:32:27.297Z,43.67
2018-10-11T14:34:55.780Z,43.68
2018-10-11T14:37:24.297Z,44.56
2018-10-11T14:39:52.799Z,43.35
2018-10-11T14:42:21.276Z,43.84
2018-10-11T14:44:49.762Z,44.21
2018-10-11T14:47:18.153Z,43.31
2018-10-11T14:49:46.737Z,43.77
2018-10-11T14:52:15.223Z,44.08
2018-10-11T14:54:43.744Z,43.62
2018-10-11T14:57:12.214Z,44.39
2018-10-11T14:59:40.758Z,43.47
2018-10-11T15:02:09.273Z,43.93
2018-10-11T15:04:37.823Z,43.99
2018-10-11T15:07:06.431Z,43.40
2018-10-11T15:09:34.883Z,44.18
2018-10-11T15:12:03.299Z,44.31
2018-10-11T15:14:31.825Z,44.61
2018-10-11T15:17:00.257Z,43.56
2018-10-11T15:19:28.684Z,43.83
2018-10-11T15:21:57.326Z,43.90
2018-10-11T15:24:25.779Z,43.99
2018-10-11T15:26:54.223Z,44.01
2018-10-11T15:29:22.708Z,43.90
2018-10-11T15:31:51.074Z,44.06
2018-10-11T15:34:19.878Z,44.33
2018-10-11T15:36:48.362Z,44.56
2018-10-11T15:39:16.738Z,44.04
2018-10-11T15:41:45.181Z,44.18
2018-10-11T15:44:13.609Z,44.73
2018-10-11T15:46:42.419Z,44.77
2018-10-11T15:49:10.944Z,44.24
2018-10-11T15:51:39.549Z,44.51
2018-10-11T15:54:08.047Z,44.87
2018-10-11T15:56:36.911Z,44.67
2018-10-11T15:59:05.358Z,45.07
2018-10-11T16:01:34.926Z,44.99
2018-10-11T16:04:03.291Z,44.46
2018-10-11T16:06:31.699Z,44.45
2018-10-11T16:09:00.169Z,44.18
2018-10-11T16:11:28.521Z,44.36
2018-10-11T16:13:57.249Z,44.39
2018-10-11T16:16:25.704Z,44.49
2018-10-11T16:18:54.451Z,44.04
2018-10-11T16:21:22.936Z,44.50
2018-10-11T16:23:51.365Z,44.26
2018-10-11T16:26:19.834Z,44.73
2018-10-11T16:28:48.291Z,44.70
2018-10-11T16:31:16.771Z,45.58
2018-10-11T16:33:45.197Z,45.00
2018-10-11T16:36:15.092Z,44.55
2018-10-11T16:38:43.583Z,45.48
2018-10-11T16:41:12.086Z,45.73
2018-10-11T16:43:40.646Z,45.77
2018-10-11T16:46:09.032Z,45.08
2018-10-11T16:48:37.500Z,45.41
2018-10-11T16:51:06.139Z,45.74
2018-10-11T16:53:34.535Z,45.62
2018-10-11T16:56:03.030Z,45.52
2018-10-11T16:58:31.501Z,45.76
2018-10-11T17:00:59.992Z,46.24
2018-10-11T17:03:28.733Z,45.87
2018-10-11T17:05:57.371Z,45.81
2018-10-11T17:08:26.122Z,45.80
2018-10-11T17:10:54.747Z,45.83
2018-10-11T17:13:23.213Z,46.64
2018-10-11T17:15:52.193Z,46.17
2018-10-11T17:18:21.003Z,46.56
2018-10-11T17:20:49.884Z,46.12
2018-10-11T17:23:18.404Z,46.95
2018-10-11T17:25:46.858Z,46.45
2018-10-11T17:28:18.639Z,46.08
2018-10-11T17:30:47.098Z,46.20
2018-10-11T17:33:15.573Z,46.37
2018-10-11T17:35:44.113Z,46.18
2018-10-11T17:38:12.578Z,46.25
2018-10-11T17:40:41.039Z,46.77
2018-10-11T17:43:09.560Z,46.34
2018-10-11T17:45:38.061Z,46.47
2018-10-11T17:48:06.575Z,46.31
2018-10-11T17:50:35.284Z,45.94
2018-10-11T17:53:03.766Z,46.92
2018-10-11T17:55:32.246Z,47.02
2018-10-11T17:58:00.683Z,46.54
2018-10-11T18:00:29.258Z,46.83
2018-10-11T18:02:57.822Z,46.16
2018-10-11T18:05:26.424Z,46.84
2018-10-11T18:07:54.897Z,46.97
2018-10-11T18:10:23.511Z,46.77
2018-10-11T18:12:52.091Z,45.99
2018-10-11T18:15:20.608Z,45.97
2018-10-11T18:17:49.068Z,46.39
2018-10-11T18:20:17.761Z,46.13
2018-10-11T18:22:46.353Z,46.72
2018-10-11T18:25:14.991Z,45.78
2018-10-11T18:27:43.649Z,45.58
2018-10-11T18:30:12.730Z,46.02
2018-10-11T18:32:41.729Z,44.93
2018-10-11T18:35:11.416Z,45.00
2018-10-11T18:37:40.009Z,44.86
2018-10-11T18:40:09.078Z,45.03
2018-10-11T18:42:37.693Z,45.28
2018-10-11T18:45:07.168Z,45.41
2018-10-11T18:47:35.702Z,44.94
2018-10-11T18:50:04.307Z,44.97
2018-10-11T18:52:33.029Z,44.39
2018-10-11T18:55:01.880Z,44.91
2018-10-11T18:57:30.740Z,44.39
2018-10-11T18:59:59.422Z,44.80
2018-10-11T19:02:28.356Z,44.45
2018-10-11T19:04:57.053Z,45.19
2018-10-11T19:07:25.962Z,45.23
2018-10-11T19:09:54.438Z,44.88
2018-10-11T19:12:23.070Z,44.57
2018-10-11T19:14:51.612Z,45.00
2018-10-11T19:17:20.373Z,44.28
2018-10-11T19:19:49.358Z,44.17
2018-10-11T19:22:18.389Z,44.71
2018-10-11T19:24:47.253Z,44.70
2018-10-11T19:27:16.187Z,45.02
2018-10-11T19:29:44.996Z,44.53
2018-10-11T19:32:13.664Z,45.04
2018-10-11T19:34:42.462Z,45.44
2018-10-11T19:37:11.426Z,44.67
2018-10-11T19:39:40.085Z,45.16
2018-10-11T19:42:09.297Z,45.20
2018-10-11T19:44:38.249Z,45.59
2018-10-11T19:47:07.365Z,46.12
2018-10-11T19:49:36.631Z,45.56
2018-10-11T19:52:05.618Z,46.07
2018-10-11T19:54:34.787Z,45.89
2018-10-11T19:57:03.750Z,45.58
2018-10-11T19:59:32.845Z,45.66
2018-10-11T20:02:02.322Z,46.01
2018-10-11T20:04:31.160Z,46.20
2018-10-11T20:07:00.218Z,46.42
2018-10-11T20:09:29.179Z,46.56
2018-10-11T20:11:58.167Z,45.98
2018-10-11T20:14:26.991Z,46.28
2018-10-11T20:16:55.805Z,46.36
2018-10-11T20:19:24.699Z,46.27
2018-10-11T20:21:53.517Z,46.49
2018-10-11T20:24:22.649Z,46.25
2018-10-11T20:26:51.643Z,46.44
2018-10-11T20:29:20.607Z,46.67
2018-10-11T20:31:49.461Z,46.32
2018-10-11T20:34:18.527Z,46.18
2018-10-11T20:36:48.190Z,46.44
2018-10-11T20:39:16.997Z,46.27
2018-10-11T20:41:45.965Z,46.85
2018-10-11T20:44:14.700Z,46.98
2018-10-11T20:46:43.350Z,46.86
2018-10-11T20:49:12.342Z,47.35
2018-10-11T20:51:41.259Z,46.78
2018-10-11T20:54:10.003Z,46.88
2018-10-11T20:56:38.714Z,46.72
2018-10-11T20:59:09.602Z,47.00
2018-10-11T21:01:38.538Z,47.20
2018-10-11T21:04:07.205Z,47.29
2018-10-11T21:06:35.942Z,47.84
2018-10-11T21:09:06.600Z,47.88
2018-10-11T21:11:35.283Z,47.07
2018-10-11T21:14:04.140Z,47.32
2018-10-11T21:16:32.776Z,47.20
2018-10-11T21:19:01.262Z,47.31
2018-10-11T21:21:30.150Z,47.77
2018-10-11T21:23:58.810Z,47.69
2018-10-11T21:26:27.300Z,47.87
2018-10-11T21:28:56.153Z,47.47
2018-10-11T21:31:24.866Z,47.34
2018-10-11T21:33:53.400Z,47.85
2018-10-11T21:36:21.900Z,47.75
2018-10-11T21:38:50.332Z,48.30
2018-10-11T21:41:18.712Z,48.11
2018-10-11T21:43:47.190Z,48.61
2018-10-11T21:46:15.818Z,48.73
2018-10-11T21:48:44.212Z,48.57
2018-10-11T21:51:12.622Z,48.73
2018-10-11T21:53:41.112Z,48.81
2018-10-11T21:56:09.523Z,48.59
2018-10-11T21:58:37.908Z,48.51
2018-10-11T22:01:11.657Z,48.08
2018-10-11T22:03:40.101Z,48.65
2018-10-11T22:06:08.736Z,48.64
2018-10-11T22:08:37.158Z,48.79
2018-10-11T22:11:05.510Z,48.42
2018-10-11T22:13:34.010Z,48.70
2018-10-11T22:16:04.048Z,49.26
2018-10-11T22:18:32.491Z,49.00
2018-10-11T22:21:00.999Z,48.95
2018-10-11T22:23:29.599Z,48.47
2018-10-11T22:25:58.222Z,48.87
2018-10-11T22:28:26.848Z,48.47
2018-10-11T22:30:55.438Z,48.28
2018-10-11T22:33:24.551Z,48.77
2018-10-11T22:35:53.560Z,49.07
2018-10-11T22:38:21.935Z,49.26
2018-10-11T22:40:50.377Z,48.96
2018-10-11T22:43:18.843Z,48.94
2018-10-11T22:45:47.550Z,48.79
2018-10-11T22:48:16.020Z,49.09
2018-10-11T22:50:44.509Z,49.21
2018-10-11T22:53:12.990Z,48.89
2018-10-11T22:55:41.374Z,48.89
2018-10-11T22:58:09.735Z,48.53
2018-10-11T23:00:38.162Z,48.64
2018-10-11T23:03:06.529Z,49.23
2018-10-11T23:05:34.941Z,49.17
2018-10-11T23:08:03.345Z,49.19
2018-10-11T23:10:31.832Z,49.17
2018-10-11T23:13:00.249Z,49.67
2018-10-11T23:15:28.667Z,48.91
2018-10-11T23:17:57.029Z,49.06
2018-10-11T23:20:25.385Z,49.02
2018-10-11T23:22:56.700Z,48.77
2018-10-11T23:25:25.119Z,49.64
2018-10-11T23:27:53.503Z,49.10
2018-10-11T23:30:21.960Z,49.86
2018-10-11T23:32:50.344Z,49.70
2018-10-11T23:35:18.719Z,49.16
2018-10-11T23:37:47.108Z,49.42
2018-10-11T23:40:15.547Z,49.38
2018-10-11T23:42:43.997Z,49.54
2018-10-11T23:45:13.400Z,49.26
2018-10-11T23:47:42.736Z,49.67
2018-10-11T23:50:11.287Z,49.25
2018-10-11T23:52:39.773Z,49.61
2018-10-11T23:55:08.544Z,49.65
2018-10-11T23:57:37.034Z,50.16
